createdAt,value
2023-11-23T00:01:15.563Z,8.43
2023-11-23T00:03:43.941Z,8.57
2023-11-23T00:06:12.410Z,7.07
2023-11-23T00:08:42.847Z,6.13
2023-11-23T00:11:11.558Z,11.10
2023-11-23T00:13:41.573Z,6.07
2023-11-23T00:16:10.365Z,8.73
2023-11-23T00:18:38.898Z,6.57
2023-11-23T00:21:07.355Z,9.37
2023-11-23T00:23:35.715Z,11.33
2023-11-23T00:26:04.901Z,7.10
2023-11-23T00:28:33.258Z,7.37
2023-11-23T00:31:02.755Z,9.53
2023-11-23T00:33:31.340Z,6.53
2023-11-23T00:36:03.994Z,9.23
2023-11-23T00:38:32.364Z,7.73
2023-11-23T00:41:01.820Z,6.93
2023-11-23T00:43:30.230Z,10.83
2023-11-23T00:45:58.616Z,8.70
2023-11-23T00:48:28.975Z,8.80
2023-11-23T00:50:57.414Z,8.80
2023-11-23T00:53:25.784Z,9.57
2023-11-23T00:55:58.152Z,8.37
2023-11-23T00:58:26.606Z,10.87
2023-11-23T01:00:55.015Z,9.30
2023-11-23T01:03:25.285Z,9.77
2023-11-23T01:05:55.344Z,12.00
2023-11-23T01:08:23.713Z,12.83
2023-11-23T01:10:54.144Z,8.40
2023-11-23T01:13:22.578Z,11.73
2023-11-23T01:15:50.912Z,9.10
2023-11-23T01:18:19.393Z,17.27
2023-11-23T01:20:47.832Z,10.33
2023-11-23T01:23:17.549Z,9.50
2023-11-23T01:25:46.655Z,11.97
2023-11-23T01:28:15.151Z,11.53
2023-11-23T01:30:43.581Z,10.53
2023-11-23T01:33:12.078Z,12.37
2023-11-23T01:35:40.539Z,10.70
2023-11-23T01:38:08.968Z,9.57
2023-11-23T01:40:38.974Z,9.57
2023-11-23T01:43:09.102Z,9.90
2023-11-23T01:45:37.561Z,8.43
2023-11-23T01:48:06.537Z,10.20
2023-11-23T01:50:35.948Z,10.83
2023-11-23T01:53:04.696Z,10.40
2023-11-23T01:55:33.344Z,16.57
2023-11-23T01:58:07.600Z,9.63
2023-11-23T02:00:36.064Z,15.27
2023-11-23T02:03:04.560Z,14.10
2023-11-23T02:05:33.037Z,14.40
2023-11-23T02:08:01.373Z,12.70
2023-11-23T02:10:29.939Z,12.90
2023-11-23T02:12:58.340Z,21.60
2023-11-23T02:15:27.868Z,13.37
2023-11-23T02:18:03.202Z,14.27
2023-11-23T02:20:32.051Z,12.80
2023-11-23T02:23:01.088Z,12.97
2023-11-23T02:25:30.873Z,16.17
2023-11-23T02:27:59.259Z,18.57
2023-11-23T02:30:27.751Z,13.83
2023-11-23T02:32:57.251Z,13.87
2023-11-23T02:35:25.816Z,18.10
2023-11-23T02:37:54.216Z,13.70
2023-11-23T02:40:22.839Z,15.83
2023-11-23T02:42:52.552Z,15.13
2023-11-23T02:45:21.170Z,13.83
2023-11-23T02:47:50.742Z,17.27
2023-11-23T02:50:19.898Z,16.60
2023-11-23T02:52:48.379Z,16.50
2023-11-23T02:55:16.827Z,20.07
2023-11-23T02:57:46.138Z,19.50
2023-11-23T03:00:15.269Z,19.47
2023-11-23T03:02:43.685Z,19.00
2023-11-23T03:05:12.536Z,19.90
2023-11-23T03:07:40.970Z,15.63
2023-11-23T03:10:10.707Z,20.70
2023-11-23T03:12:39.184Z,20.37
2023-11-23T03:15:08.002Z,26.17
2023-11-23T03:17:37.641Z,17.50
2023-11-23T03:20:06.418Z,20.17
2023-11-23T03:22:34.838Z,19.73
2023-11-23T03:25:03.210Z,21.53
2023-11-23T03:27:31.527Z,16.43
2023-11-23T03:29:59.596Z,19.57
2023-11-23T03:32:31.680Z,20.70
2023-11-23T03:35:01.901Z,17.33
2023-11-23T03:37:30.277Z,17.00
2023-11-23T03:40:00.171Z,19.10
2023-11-23T03:42:27.720Z,22.03
2023-11-23T03:44:56.086Z,18.40
2023-11-23T03:47:24.171Z,15.13
2023-11-23T03:49:53.091Z,19.03
2023-11-23T03:52:22.855Z,20.90
2023-11-23T03:54:51.813Z,16.77
2023-11-23T03:57:20.200Z,23.67
2023-11-23T03:59:48.650Z,17.33
2023-11-23T04:02:17.170Z,21.70
2023-11-23T04:04:45.597Z,23.23
2023-11-23T04:07:14.000Z,21.67
2023-11-23T04:09:43.779Z,20.97
2023-11-23T04:12:12.222Z,27.00
2023-11-23T04:14:40.738Z,21.97
2023-11-23T04:17:08.827Z,21.10
2023-11-23T04:19:37.168Z,23.10
2023-11-23T04:22:08.106Z,21.07
2023-11-23T04:24:37.295Z,19.90
2023-11-23T04:27:07.348Z,23.03
2023-11-23T04:29:35.723Z,20.90
2023-11-23T04:32:05.066Z,24.57
2023-11-23T04:34:33.438Z,19.70
2023-11-23T04:37:02.234Z,20.73
2023-11-23T04:39:30.627Z,23.20
2023-11-23T04:41:59.002Z,24.17
2023-11-23T04:44:29.035Z,20.07
2023-11-23T04:46:57.351Z,27.33
2023-11-23T04:49:25.766Z,21.63
2023-11-23T04:51:54.128Z,22.00
2023-11-23T04:54:22.514Z,21.47
2023-11-23T04:56:52.028Z,28.33
2023-11-23T04:59:20.131Z,23.47
2023-11-23T05:01:50.276Z,26.77
2023-11-23T05:04:18.455Z,25.73
2023-11-23T05:06:47.059Z,26.90
2023-11-23T05:09:15.538Z,25.47
2023-11-23T05:11:44.046Z,23.17
2023-11-23T05:14:13.603Z,26.33
2023-11-23T05:16:42.093Z,29.87
2023-11-23T05:19:11.526Z,25.70
2023-11-23T05:21:40.594Z,30.37
2023-11-23T05:24:09.557Z,29.70
2023-11-23T05:26:38.078Z,27.20
2023-11-23T05:29:07.398Z,33.27
2023-11-23T05:31:35.804Z,27.03
2023-11-23T05:34:04.631Z,32.67
2023-11-23T05:36:34.477Z,33.93
2023-11-23T05:39:02.918Z,35.27
2023-11-23T05:41:31.287Z,34.23
2023-11-23T05:43:59.985Z,33.80
2023-11-23T05:46:28.481Z,42.70
2023-11-23T05:48:57.464Z,35.83
2023-11-23T05:51:25.897Z,39.83
2023-11-23T05:53:55.669Z,31.73
2023-11-23T05:56:24.009Z,37.00
2023-11-23T05:58:52.378Z,44.80
2023-11-23T06:01:20.729Z,32.60
2023-11-23T06:03:49.416Z,41.00
2023-11-23T06:06:21.596Z,37.23
2023-11-23T06:08:50.480Z,40.93
2023-11-23T06:11:20.413Z,40.33
2023-11-23T06:13:48.814Z,30.53
2023-11-23T06:16:17.346Z,37.90
2023-11-23T06:18:45.971Z,38.80
2023-11-23T06:21:14.494Z,37.13
2023-11-23T06:23:42.907Z,35.27
2023-11-23T06:26:11.824Z,40.40
2023-11-23T06:28:42.512Z,36.03
2023-11-23T06:31:10.917Z,39.63
2023-11-23T06:33:39.375Z,38.43
2023-11-23T06:36:08.153Z,36.27
2023-11-23T06:38:37.224Z,36.43
2023-11-23T06:41:07.015Z,39.20
2023-11-23T06:43:36.302Z,41.67
2023-11-23T06:46:08.598Z,39.23
2023-11-23T06:48:37.139Z,32.23
2023-11-23T06:51:05.888Z,44.77
2023-11-23T06:53:34.546Z,31.90
2023-11-23T06:56:04.393Z,36.07
2023-11-23T06:58:32.914Z,34.93
2023-11-23T07:01:04.661Z,38.87
2023-11-23T07:03:34.948Z,32.20
2023-11-23T07:06:04.018Z,41.23
2023-11-23T07:08:32.676Z,36.87
2023-11-23T07:11:01.136Z,40.67
2023-11-23T07:13:29.731Z,36.10
2023-11-23T07:16:00.246Z,35.10
2023-11-23T07:18:28.718Z,39.07
2023-11-23T07:20:58.779Z,39.73
2023-11-23T07:23:27.584Z,46.00
2023-11-23T07:25:55.956Z,29.13
2023-11-23T07:28:26.549Z,36.13
2023-11-23T07:30:55.141Z,36.17
2023-11-23T07:33:26.148Z,30.43
2023-11-23T07:35:54.600Z,31.47
2023-11-23T07:38:24.505Z,30.03
2023-11-23T07:40:52.898Z,34.87
2023-11-23T07:43:21.420Z,30.77
2023-11-23T07:45:49.507Z,30.27
2023-11-23T07:48:17.956Z,33.40
2023-11-23T07:50:46.604Z,30.60
2023-11-23T07:53:16.147Z,35.93
2023-11-23T07:55:46.095Z,36.17
2023-11-23T07:58:14.345Z,32.83
2023-11-23T08:00:42.804Z,34.67
2023-11-23T08:03:12.026Z,36.13
2023-11-23T08:05:40.419Z,32.60
2023-11-23T08:08:08.598Z,34.93
2023-11-23T08:10:36.983Z,29.90
2023-11-23T08:13:06.939Z,29.80
2023-11-23T08:15:35.621Z,35.00
2023-11-23T08:18:08.004Z,31.83
2023-11-23T08:20:38.200Z,37.00
2023-11-23T08:23:08.916Z,34.30
2023-11-23T08:25:38.852Z,36.07
2023-11-23T08:28:08.681Z,37.63
2023-11-23T08:30:37.649Z,37.33
2023-11-23T08:33:07.032Z,38.03
2023-11-23T08:35:35.423Z,33.03
2023-11-23T08:38:04.255Z,40.07
2023-11-23T08:40:32.732Z,36.63
2023-11-23T08:43:01.097Z,35.67
2023-11-23T08:45:31.260Z,39.17
2023-11-23T08:47:59.718Z,38.53
2023-11-23T08:50:28.642Z,36.33
2023-11-23T08:52:58.904Z,40.67
2023-11-23T08:55:27.373Z,40.87
2023-11-23T08:57:55.842Z,32.73
2023-11-23T09:00:26.332Z,33.93
2023-11-23T09:02:56.315Z,36.53
2023-11-23T09:05:25.344Z,34.20
2023-11-23T09:07:54.848Z,30.53
2023-11-23T09:10:24.684Z,34.27
2023-11-23T09:12:53.108Z,27.77
2023-11-23T09:15:23.331Z,33.23
2023-11-23T09:17:52.999Z,30.80
2023-11-23T09:20:22.751Z,28.63
2023-11-23T09:22:51.087Z,29.53
2023-11-23T09:25:19.671Z,33.10
2023-11-23T09:27:47.831Z,34.70
2023-11-23T09:30:16.914Z,31.13
2023-11-23T09:32:45.400Z,36.47
2023-11-23T09:35:13.887Z,28.43
2023-11-23T09:37:43.402Z,29.00
2023-11-23T09:40:18.232Z,27.80
2023-11-23T09:42:49.611Z,27.07
2023-11-23T09:45:23.133Z,26.87
2023-11-23T09:47:54.686Z,28.40
2023-11-23T09:50:23.193Z,25.77
2023-11-23T09:52:53.580Z,36.50
2023-11-23T09:55:22.985Z,27.30
2023-11-23T09:57:51.404Z,29.00
2023-11-23T10:00:22.387Z,33.83
2023-11-23T10:02:51.543Z,24.67
2023-11-23T10:05:20.101Z,27.87
2023-11-23T10:07:50.862Z,25.47
2023-11-23T10:10:21.113Z,24.27
2023-11-23T10:12:50.476Z,28.47
2023-11-23T10:15:19.189Z,26.07
2023-11-23T10:17:47.643Z,22.07
2023-11-23T10:20:17.170Z,21.80
2023-11-23T10:22:46.173Z,24.30
2023-11-23T10:25:27.215Z,29.53
2023-11-23T10:27:59.668Z,26.17
2023-11-23T10:30:28.516Z,30.40
2023-11-23T10:32:59.017Z,24.50
2023-11-23T10:35:33.116Z,24.30
2023-11-23T10:38:01.597Z,23.77
2023-11-23T10:40:31.773Z,23.27
2023-11-23T10:43:02.446Z,24.97
2023-11-23T10:45:33.724Z,31.30
2023-11-23T10:48:05.143Z,35.10
2023-11-23T10:50:34.840Z,25.80
2023-11-23T10:53:04.397Z,26.87
2023-11-23T10:55:33.979Z,20.80
2023-11-23T10:58:06.066Z,28.87
2023-11-23T11:00:35.109Z,18.70
2023-11-23T11:03:07.927Z,22.57
2023-11-23T11:05:38.044Z,25.67
2023-11-23T11:08:08.639Z,25.40
2023-11-23T11:10:51.330Z,24.83
2023-11-23T11:13:21.518Z,27.27
2023-11-23T11:15:54.203Z,32.43
2023-11-23T11:18:27.157Z,26.03
2023-11-23T11:21:02.243Z,25.70
2023-11-23T11:23:46.181Z,29.50
2023-11-23T11:26:19.388Z,27.87
2023-11-23T11:28:55.344Z,24.70
2023-11-23T11:31:32.436Z,21.57
2023-11-23T11:34:03.146Z,23.67
2023-11-23T11:36:32.890Z,21.60
2023-11-23T11:39:02.547Z,25.97
2023-11-23T11:41:35.706Z,26.60
2023-11-23T11:44:06.444Z,22.40
2023-11-23T11:46:36.782Z,22.93
2023-11-23T11:49:05.232Z,22.70
2023-11-23T11:51:34.214Z,23.73
2023-11-23T11:54:02.774Z,23.13
2023-11-23T11:56:32.548Z,24.10
2023-11-23T11:59:04.502Z,22.77
2023-11-23T12:01:32.914Z,24.47
2023-11-23T12:04:03.079Z,27.13
2023-11-23T12:06:31.771Z,22.27
2023-11-23T12:09:00.360Z,21.67
2023-11-23T12:11:32.099Z,22.20
2023-11-23T12:14:02.812Z,18.53
2023-11-23T12:16:34.928Z,26.67
2023-11-23T12:19:03.448Z,22.23
2023-11-23T12:21:32.521Z,20.90
2023-11-23T12:24:01.758Z,21.97
2023-11-23T12:26:30.129Z,19.87
2023-11-23T12:28:58.137Z,21.63
2023-11-23T12:31:27.659Z,22.67
2023-11-23T12:33:56.164Z,23.63
2023-11-23T12:36:24.253Z,22.97
2023-11-23T12:38:52.610Z,24.47
2023-11-23T12:41:21.417Z,16.20
2023-11-23T12:43:50.311Z,16.57
2023-11-23T12:46:18.756Z,21.13
2023-11-23T12:48:48.417Z,18.67
2023-11-23T12:51:16.907Z,23.97
2023-11-23T12:53:45.300Z,19.30
2023-11-23T12:56:13.740Z,20.57
2023-11-23T12:58:41.974Z,15.53
2023-11-23T13:01:10.004Z,16.60
2023-11-23T13:03:38.342Z,22.90
2023-11-23T13:06:09.683Z,12.23
2023-11-23T13:08:38.104Z,15.90
2023-11-23T13:11:06.594Z,15.60
2023-11-23T13:13:34.801Z,21.53
2023-11-23T13:16:03.086Z,14.47
2023-11-23T13:18:47.449Z,20.37
2023-11-23T13:21:21.038Z,14.73
2023-11-23T13:23:50.291Z,13.87
2023-11-23T13:26:18.969Z,14.37
2023-11-23T13:28:48.672Z,13.40
2023-11-23T13:31:16.875Z,13.03
2023-11-23T13:33:45.303Z,18.13
2023-11-23T13:36:14.385Z,12.37
2023-11-23T13:38:43.833Z,15.87
2023-11-23T13:41:12.181Z,12.27
2023-11-23T13:43:40.542Z,14.70
2023-11-23T13:46:09.310Z,16.27
2023-11-23T13:48:37.776Z,17.73
2023-11-23T13:51:06.235Z,15.37
2023-11-23T13:53:34.771Z,13.03
2023-11-23T13:56:04.387Z,13.47
2023-11-23T13:58:32.715Z,11.37
2023-11-23T14:01:01.207Z,10.97
2023-11-23T14:03:31.811Z,17.17
2023-11-23T14:06:00.486Z,12.47
2023-11-23T14:08:28.924Z,10.77
2023-11-23T14:10:57.281Z,13.00
2023-11-23T14:13:26.790Z,14.63
2023-11-23T14:15:55.336Z,11.00
2023-11-23T14:18:23.497Z,15.00
2023-11-23T14:20:52.067Z,13.37
2023-11-23T14:23:20.478Z,14.30
2023-11-23T14:25:48.865Z,18.73
2023-11-23T14:28:17.337Z,15.20
2023-11-23T14:30:47.479Z,13.63
2023-11-23T14:33:16.795Z,10.17
2023-11-23T14:35:52.109Z,12.63
2023-11-23T14:38:21.231Z,11.20
2023-11-23T14:40:50.666Z,11.00
2023-11-23T14:43:19.946Z,11.47
2023-11-23T14:45:50.767Z,12.57
2023-11-23T14:48:19.820Z,11.23
2023-11-23T14:50:48.384Z,11.03
2023-11-23T14:53:16.732Z,14.53
2023-11-23T14:55:44.878Z,11.50
2023-11-23T14:58:15.139Z,13.03
2023-11-23T15:00:44.147Z,15.30
2023-11-23T15:03:14.277Z,14.57
2023-11-23T15:05:42.664Z,9.60
2023-11-23T15:08:11.020Z,11.97
2023-11-23T15:10:39.807Z,16.20
2023-11-23T15:13:08.329Z,14.97
2023-11-23T15:15:37.385Z,9.00
2023-11-23T15:18:06.253Z,15.53
2023-11-23T15:20:35.771Z,14.30
2023-11-23T15:23:09.393Z,11.43
2023-11-23T15:25:37.899Z,16.93
2023-11-23T15:28:08.766Z,13.93
2023-11-23T15:30:37.348Z,14.97
2023-11-23T15:33:06.053Z,13.73
2023-11-23T15:35:38.443Z,12.77
2023-11-23T15:38:07.189Z,16.07
2023-11-23T15:40:35.585Z,14.97
2023-11-23T15:43:04.201Z,16.97
2023-11-23T15:45:32.536Z,14.10
2023-11-23T15:48:00.978Z,12.03
2023-11-23T15:50:32.734Z,15.37
2023-11-23T15:53:02.488Z,14.77
2023-11-23T15:55:31.304Z,17.50
2023-11-23T15:57:59.707Z,16.43
2023-11-23T16:00:28.086Z,15.57
2023-11-23T16:02:58.250Z,22.20
2023-11-23T16:05:28.905Z,20.27
2023-11-23T16:07:58.201Z,19.40
2023-11-23T16:10:28.395Z,22.33
2023-11-23T16:12:56.944Z,21.90
2023-11-23T16:15:25.580Z,19.40
2023-11-23T16:17:55.633Z,19.83
2023-11-23T16:20:25.980Z,21.37
2023-11-23T16:22:54.004Z,19.67
2023-11-23T16:25:22.190Z,20.00
2023-11-23T16:27:51.596Z,23.17
2023-11-23T16:30:19.922Z,19.73
2023-11-23T16:32:48.351Z,17.30
2023-11-23T16:35:16.752Z,22.20
2023-11-23T16:37:45.334Z,20.73
2023-11-23T16:40:13.800Z,22.50
2023-11-23T16:42:43.165Z,21.63
2023-11-23T16:45:13.799Z,21.67
2023-11-23T16:47:43.156Z,19.83
2023-11-23T16:50:13.937Z,22.83
2023-11-23T16:52:42.258Z,26.13
2023-11-23T16:55:10.716Z,20.67
2023-11-23T16:57:40.373Z,21.67
2023-11-23T17:00:13.213Z,28.50
2023-11-23T17:02:43.319Z,20.93
2023-11-23T17:05:12.137Z,22.03
2023-11-23T17:07:40.518Z,27.90
2023-11-23T17:10:10.105Z,27.70
2023-11-23T17:12:38.805Z,22.30
2023-11-23T17:15:09.083Z,22.10
2023-11-23T17:17:37.306Z,26.93
2023-11-23T17:20:07.929Z,26.60
2023-11-23T17:22:37.624Z,25.73
2023-11-23T17:25:06.884Z,21.33
2023-11-23T17:27:35.539Z,25.63
2023-11-23T17:30:04.277Z,25.17
2023-11-23T17:32:33.624Z,27.80
2023-11-23T17:35:02.186Z,30.43
2023-11-23T17:37:31.864Z,25.93
2023-11-23T17:40:00.325Z,29.30
2023-11-23T17:42:28.589Z,27.50
2023-11-23T17:44:56.629Z,30.23
2023-11-23T17:47:27.115Z,24.70
2023-11-23T17:49:56.077Z,24.27
2023-11-23T17:52:24.658Z,19.00
2023-11-23T17:54:55.948Z,17.50
2023-11-23T17:57:24.669Z,21.17
2023-11-23T17:59:56.557Z,27.70
2023-11-23T18:02:26.549Z,21.80
2023-11-23T18:04:57.226Z,20.40
2023-11-23T18:07:25.717Z,22.30
2023-11-23T18:09:55.250Z,19.87
2023-11-23T18:12:23.686Z,24.53
2023-11-23T18:14:51.970Z,21.33
2023-11-23T18:17:20.360Z,25.37
2023-11-23T18:19:49.211Z,19.73
2023-11-23T18:22:18.003Z,24.43
2023-11-23T18:24:46.660Z,23.93
2023-11-23T18:27:16.150Z,24.83
2023-11-23T18:29:44.546Z,20.90
2023-11-23T18:32:14.909Z,17.10
2023-11-23T18:34:43.467Z,22.07
2023-11-23T18:37:13.310Z,23.93
2023-11-23T18:39:42.246Z,19.83
2023-11-23T18:42:12.634Z,25.43
2023-11-23T18:44:42.697Z,24.37
2023-11-23T18:47:11.132Z,23.20
2023-11-23T18:49:39.515Z,24.07
2023-11-23T18:52:09.948Z,17.67
2023-11-23T18:54:38.377Z,22.90
2023-11-23T18:57:06.937Z,21.00
2023-11-23T18:59:35.570Z,23.13
2023-11-23T19:02:06.158Z,23.50
2023-11-23T19:04:34.517Z,24.77
2023-11-23T19:07:03.143Z,23.57
2023-11-23T19:09:32.369Z,23.20
2023-11-23T19:12:00.790Z,19.40
2023-11-23T19:14:29.135Z,19.77
2023-11-23T19:16:57.932Z,16.73
2023-11-23T19:19:27.898Z,17.23
2023-11-23T19:21:56.554Z,21.07
2023-11-23T19:24:25.443Z,15.77
2023-11-23T19:26:54.053Z,14.00
2023-11-23T19:29:31.863Z,16.67
2023-11-23T19:32:08.674Z,17.30
2023-11-23T19:34:38.799Z,15.93
2023-11-23T19:37:07.545Z,15.27
2023-11-23T19:39:36.354Z,18.17
2023-11-23T19:42:06.197Z,16.13
2023-11-23T19:44:36.067Z,16.83
2023-11-23T19:47:04.621Z,20.63
2023-11-23T19:49:34.046Z,21.47
2023-11-23T19:52:06.092Z,21.70
2023-11-23T19:54:34.990Z,30.00
2023-11-23T19:57:03.605Z,21.17
2023-11-23T19:59:32.149Z,19.13
2023-11-23T20:02:01.835Z,21.10
2023-11-23T20:04:31.047Z,22.77
2023-11-23T20:07:00.098Z,20.77
2023-11-23T20:09:31.211Z,19.77
2023-11-23T20:12:00.406Z,25.37
2023-11-23T20:14:29.418Z,20.20
2023-11-23T20:16:58.854Z,22.13
2023-11-23T20:19:29.862Z,23.83
2023-11-23T20:21:58.794Z,19.40
2023-11-23T20:24:28.022Z,25.70
2023-11-23T20:26:58.375Z,21.27
2023-11-23T20:29:26.747Z,18.20
2023-11-23T20:31:56.114Z,17.17
2023-11-23T20:34:24.659Z,19.80
2023-11-23T20:36:53.230Z,16.60
2023-11-23T20:39:21.901Z,20.20
2023-11-23T20:41:51.279Z,19.83
2023-11-23T20:44:20.857Z,36.43
2023-11-23T20:46:49.761Z,24.52
2023-11-23T20:49:18.260Z,17.40
2023-11-23T20:51:46.789Z,19.20
2023-11-23T20:54:15.387Z,16.97
2023-11-23T20:56:44.694Z,17.87
2023-11-23T20:59:13.545Z,20.03
2023-11-23T21:01:43.985Z,22.30
2023-11-23T21:04:14.911Z,21.20
2023-11-23T21:06:55.905Z,24.77
2023-11-23T21:09:30.015Z,19.10
2023-11-23T21:12:03.332Z,7.60
2023-11-23T21:14:33.901Z,2.50
2023-11-23T21:17:03.444Z,2.93
2023-11-23T21:19:32.676Z,4.80
2023-11-23T21:22:01.191Z,4.13
2023-11-23T21:24:29.784Z,6.07
2023-11-23T21:26:58.238Z,6.17
2023-11-23T21:29:26.835Z,2.87
2023-11-23T21:31:55.856Z,2.93
2023-11-23T21:34:25.286Z,12.13
2023-11-23T21:36:53.805Z,7.60
2023-11-23T21:39:24.373Z,3.00
2023-11-23T21:41:52.663Z,4.83
2023-11-23T21:44:21.670Z,9.20
2023-11-23T21:46:49.968Z,3.30
2023-11-23T21:49:18.421Z,8.80
2023-11-23T21:51:48.373Z,5.17
2023-11-23T21:54:16.746Z,9.37
2023-11-23T21:56:45.337Z,7.67
2023-11-23T21:59:13.706Z,5.13
2023-11-23T22:01:42.324Z,7.93
2023-11-23T22:04:10.829Z,6.53
2023-11-23T22:06:39.248Z,14.23
2023-11-23T22:09:08.744Z,6.07
2023-11-23T22:11:36.836Z,13.67
2023-11-23T22:14:05.359Z,15.07
2023-11-23T22:16:33.969Z,12.70
2023-11-23T22:19:02.648Z,10.20
2023-11-23T22:21:31.348Z,9.87
2023-11-23T22:23:59.928Z,11.83
2023-11-23T22:26:30.191Z,6.57
2023-11-23T22:28:58.878Z,10.40
2023-11-23T22:31:28.424Z,10.57
2023-11-23T22:33:57.109Z,6.77
2023-11-23T22:36:25.883Z,15.50
2023-11-23T22:38:55.212Z,10.67
2023-11-23T22:41:24.810Z,9.83
2023-11-23T22:43:55.601Z,6.13
2023-11-23T22:46:24.352Z,6.97
2023-11-23T22:48:52.469Z,9.83
2023-11-23T22:51:19.867Z,6.37
2023-11-23T22:53:48.289Z,8.97
2023-11-23T22:56:17.033Z,10.07
2023-11-23T22:58:45.370Z,10.50
2023-11-23T23:01:15.607Z,9.43
2023-11-23T23:03:44.877Z,9.93
2023-11-23T23:06:13.658Z,10.90
2023-11-23T23:08:42.115Z,8.43
2023-11-23T23:11:11.189Z,12.77
2023-11-23T23:13:39.754Z,16.33
2023-11-23T23:16:08.361Z,8.90
2023-11-23T23:18:37.974Z,6.87
2023-11-23T23:21:06.370Z,9.63
2023-11-23T23:23:34.745Z,11.33
2023-11-23T23:26:03.819Z,13.73
2023-11-23T23:28:32.771Z,14.07
2023-11-23T23:31:01.640Z,9.57
2023-11-23T23:33:30.521Z,13.30
2023-11-23T23:36:00.293Z,6.47
2023-11-23T23:38:28.728Z,16.33
2023-11-23T23:40:57.086Z,12.67
2023-11-23T23:43:25.969Z,11.50
2023-11-23T23:45:54.511Z,19.37
2023-11-23T23:48:22.969Z,15.10
2023-11-23T23:50:53.982Z,13.93
2023-11-23T23:53:23.463Z,6.53
2023-11-23T23:55:52.339Z,19.00
2023-11-23T23:58:20.693Z,4.77
